<?xml version="1.0" encoding="UTF-8" standalone="no" ?>
<gpx xmlns="http://www.topografix.com/GPX/1/1" xmlns:xsi="http://www.w3.org/2001/XMLSchema-instance" xsi:schemaLocation="http://www.topografix.com/GPX/1/1 http://www.topografix.com/GPX/1/1/gpx.xsd" version="1.1" creator="VisuGPX - https://www.visugpx.com">
  <metadata>
    <name>Etape2-2_Col de l'Aubisque</name>
  </metadata>
  <trk>
    <name><![CDATA[Etape 2_Chalets d'Iraty_Argelès Gazost_143 kms_3403 D+]]></name>
    <extensions>
      <line xmlns="http://www.topografix.com/GPX/gpx_style/0/2">
        <color>0000FF</color>
        <width>4</width>
      </line>
    </extensions>
    <trkseg>
      <trkpt lat="42.97808" lon="-0.42047">
        <ele>542</ele>
        <time>2021-08-20T20:17:50Z</time>
      </trkpt>
      <trkpt lat="42.97807" lon="-0.42067">
        <ele>544</ele>
        <time>2021-08-20T20:17:52Z</time>
      </trkpt>
      <trkpt lat="42.97793" lon="-0.42071">
        <ele>548</ele>
        <time>2021-08-20T20:17:55Z</time>
      </trkpt>
      <trkpt lat="42.97783" lon="-0.42067">
        <ele>551</ele>
        <time>2021-08-20T20:17:57Z</time>
      </trkpt>
      <trkpt lat="42.97779" lon="-0.42062">
        <ele>551</ele>
        <time>2021-08-20T20:17:58Z</time>
      </trkpt>
      <trkpt lat="42.97776" lon="-0.4206">
        <ele>552</ele>
        <time>2021-08-20T20:17:58Z</time>
      </trkpt>
      <trkpt lat="42.97773" lon="-0.42051">
        <ele>551</ele>
        <time>2021-08-20T20:18:00Z</time>
      </trkpt>
      <trkpt lat="42.97773" lon="-0.42041">
        <ele>550</ele>
        <time>2021-08-20T20:18:01Z</time>
      </trkpt>
      <trkpt lat="42.97779" lon="-0.42018">
        <ele>546</ele>
        <time>2021-08-20T20:18:04Z</time>
      </trkpt>
      <trkpt lat="42.97794" lon="-0.41978">
        <ele>541</ele>
        <time>2021-08-20T20:18:10Z</time>
      </trkpt>
      <trkpt lat="42.97798" lon="-0.41948">
        <ele>540</ele>
        <time>2021-08-20T20:18:14Z</time>
      </trkpt>
      <trkpt lat="42.97799" lon="-0.41904">
        <ele>543</ele>
        <time>2021-08-20T20:18:20Z</time>
      </trkpt>
      <trkpt lat="42.978" lon="-0.41895">
        <ele>544</ele>
        <time>2021-08-20T20:18:21Z</time>
      </trkpt>
      <trkpt lat="42.97809" lon="-0.41868">
        <ele>545</ele>
        <time>2021-08-20T20:18:25Z</time>
      </trkpt>
      <trkpt lat="42.97844" lon="-0.41791">
        <ele>548</ele>
        <time>2021-08-20T20:18:36Z</time>
      </trkpt>
      <trkpt lat="42.9786" lon="-0.41732">
        <ele>555</ele>
        <time>2021-08-20T20:18:45Z</time>
      </trkpt>
      <trkpt lat="42.97867" lon="-0.41714">
        <ele>557</ele>
        <time>2021-08-20T20:18:47Z</time>
      </trkpt>
      <trkpt lat="42.97886" lon="-0.41683">
        <ele>558</ele>
        <time>2021-08-20T20:18:53Z</time>
      </trkpt>
      <trkpt lat="42.97937" lon="-0.4163">
        <ele>553</ele>
        <time>2021-08-20T20:19:04Z</time>
      </trkpt>
      <trkpt lat="42.97967" lon="-0.41583">
        <ele>552</ele>
        <time>2021-08-20T20:19:12Z</time>
      </trkpt>
      <trkpt lat="42.97989" lon="-0.41533">
        <ele>552</ele>
        <time>2021-08-20T20:19:20Z</time>
      </trkpt>
      <trkpt lat="42.9801" lon="-0.41501">
        <ele>553</ele>
        <time>2021-08-20T20:19:25Z</time>
      </trkpt>
      <trkpt lat="42.98011" lon="-0.41487">
        <ele>554</ele>
        <time>2021-08-20T20:19:27Z</time>
      </trkpt>
      <trkpt lat="42.9801" lon="-0.41474">
        <ele>555</ele>
        <time>2021-08-20T20:19:29Z</time>
      </trkpt>
      <trkpt lat="42.98" lon="-0.41461">
        <ele>558</ele>
        <time>2021-08-20T20:19:31Z</time>
      </trkpt>
      <trkpt lat="42.97988" lon="-0.41457">
        <ele>561</ele>
        <time>2021-08-20T20:19:33Z</time>
      </trkpt>
      <trkpt lat="42.97979" lon="-0.41461">
        <ele>562</ele>
        <time>2021-08-20T20:19:35Z</time>
      </trkpt>
      <trkpt lat="42.97974" lon="-0.41465">
        <ele>563</ele>
        <time>2021-08-20T20:19:36Z</time>
      </trkpt>
      <trkpt lat="42.97963" lon="-0.41491">
        <ele>563</ele>
        <time>2021-08-20T20:19:40Z</time>
      </trkpt>
      <trkpt lat="42.97953" lon="-0.41534">
        <ele>561</ele>
        <time>2021-08-20T20:19:46Z</time>
      </trkpt>
      <trkpt lat="42.97942" lon="-0.41558">
        <ele>562</ele>
        <time>2021-08-20T20:19:50Z</time>
      </trkpt>
      <trkpt lat="42.97927" lon="-0.41585">
        <ele>564</ele>
        <time>2021-08-20T20:19:54Z</time>
      </trkpt>
      <trkpt lat="42.97857" lon="-0.41637">
        <ele>575</ele>
        <time>2021-08-20T20:20:08Z</time>
      </trkpt>
      <trkpt lat="42.9784" lon="-0.41657">
        <ele>577</ele>
        <time>2021-08-20T20:20:12Z</time>
      </trkpt>
      <trkpt lat="42.97837" lon="-0.41662">
        <ele>577</ele>
        <time>2021-08-20T20:20:13Z</time>
      </trkpt>
      <trkpt lat="42.97828" lon="-0.41672">
        <ele>579</ele>
        <time>2021-08-20T20:20:15Z</time>
      </trkpt>
      <trkpt lat="42.97783" lon="-0.41743">
        <ele>579</ele>
        <time>2021-08-20T20:20:27Z</time>
      </trkpt>
      <trkpt lat="42.97683" lon="-0.41876">
        <ele>591</ele>
        <time>2021-08-20T20:20:52Z</time>
      </trkpt>
      <trkpt lat="42.97648" lon="-0.41944">
        <ele>592</ele>
        <time>2021-08-20T20:21:03Z</time>
      </trkpt>
      <trkpt lat="42.97626" lon="-0.42001">
        <ele>590</ele>
        <time>2021-08-20T20:21:11Z</time>
      </trkpt>
      <trkpt lat="42.97604" lon="-0.42068">
        <ele>593</ele>
        <time>2021-08-20T20:21:21Z</time>
      </trkpt>
      <trkpt lat="42.97596" lon="-0.42081">
        <ele>593</ele>
        <time>2021-08-20T20:21:23Z</time>
      </trkpt>
      <trkpt lat="42.97587" lon="-0.42087">
        <ele>595</ele>
        <time>2021-08-20T20:21:25Z</time>
      </trkpt>
      <trkpt lat="42.97577" lon="-0.42088">
        <ele>599</ele>
        <time>2021-08-20T20:21:27Z</time>
      </trkpt>
      <trkpt lat="42.97569" lon="-0.42084">
        <ele>602</ele>
        <time>2021-08-20T20:21:28Z</time>
      </trkpt>
      <trkpt lat="42.97563" lon="-0.42073">
        <ele>605</ele>
        <time>2021-08-20T20:21:30Z</time>
      </trkpt>
      <trkpt lat="42.9756" lon="-0.42063">
        <ele>607</ele>
        <time>2021-08-20T20:21:31Z</time>
      </trkpt>
      <trkpt lat="42.97564" lon="-0.42044">
        <ele>608</ele>
        <time>2021-08-20T20:21:34Z</time>
      </trkpt>
      <trkpt lat="42.97572" lon="-0.42028">
        <ele>606</ele>
        <time>2021-08-20T20:21:36Z</time>
      </trkpt>
      <trkpt lat="42.97611" lon="-0.41978">
        <ele>600</ele>
        <time>2021-08-20T20:21:46Z</time>
      </trkpt>
      <trkpt lat="42.97619" lon="-0.41955">
        <ele>602</ele>
        <time>2021-08-20T20:21:49Z</time>
      </trkpt>
      <trkpt lat="42.97645" lon="-0.41856">
        <ele>613</ele>
        <time>2021-08-20T20:22:03Z</time>
      </trkpt>
      <trkpt lat="42.97668" lon="-0.41811">
        <ele>613</ele>
        <time>2021-08-20T20:22:10Z</time>
      </trkpt>
      <trkpt lat="42.97723" lon="-0.41724">
        <ele>610</ele>
        <time>2021-08-20T20:22:25Z</time>
      </trkpt>
      <trkpt lat="42.97743" lon="-0.41672">
        <ele>614</ele>
        <time>2021-08-20T20:22:33Z</time>
      </trkpt>
      <trkpt lat="42.97747" lon="-0.41647">
        <ele>615</ele>
        <time>2021-08-20T20:22:36Z</time>
      </trkpt>
      <trkpt lat="42.97748" lon="-0.41635">
        <ele>616</ele>
        <time>2021-08-20T20:22:38Z</time>
      </trkpt>
      <trkpt lat="42.97749" lon="-0.41618">
        <ele>616</ele>
        <time>2021-08-20T20:22:40Z</time>
      </trkpt>
      <trkpt lat="42.97739" lon="-0.41521">
        <ele>626</ele>
        <time>2021-08-20T20:22:53Z</time>
      </trkpt>
      <trkpt lat="42.97739" lon="-0.41491">
        <ele>628</ele>
        <time>2021-08-20T20:22:57Z</time>
      </trkpt>
      <trkpt lat="42.97745" lon="-0.4146">
        <ele>630</ele>
        <time>2021-08-20T20:23:01Z</time>
      </trkpt>
      <trkpt lat="42.97765" lon="-0.41405">
        <ele>628</ele>
        <time>2021-08-20T20:23:09Z</time>
      </trkpt>
      <trkpt lat="42.97772" lon="-0.41369">
        <ele>630</ele>
        <time>2021-08-20T20:23:14Z</time>
      </trkpt>
      <trkpt lat="42.97782" lon="-0.41286">
        <ele>638</ele>
        <time>2021-08-20T20:23:25Z</time>
      </trkpt>
      <trkpt lat="42.97809" lon="-0.41215">
        <ele>633</ele>
        <time>2021-08-20T20:23:35Z</time>
      </trkpt>
      <trkpt lat="42.97814" lon="-0.4119">
        <ele>634</ele>
        <time>2021-08-20T20:23:38Z</time>
      </trkpt>
      <trkpt lat="42.97821" lon="-0.41126">
        <ele>637</ele>
        <time>2021-08-20T20:23:47Z</time>
      </trkpt>
      <trkpt lat="42.97835" lon="-0.41066">
        <ele>635</ele>
        <time>2021-08-20T20:23:55Z</time>
      </trkpt>
      <trkpt lat="42.97836" lon="-0.41045">
        <ele>636</ele>
        <time>2021-08-20T20:23:58Z</time>
      </trkpt>
      <trkpt lat="42.97834" lon="-0.41026">
        <ele>637</ele>
        <time>2021-08-20T20:24:00Z</time>
      </trkpt>
      <trkpt lat="42.97799" lon="-0.40943">
        <ele>644</ele>
        <time>2021-08-20T20:24:13Z</time>
      </trkpt>
      <trkpt lat="42.97794" lon="-0.40904">
        <ele>645</ele>
        <time>2021-08-20T20:24:18Z</time>
      </trkpt>
      <trkpt lat="42.97794" lon="-0.40837">
        <ele>646</ele>
        <time>2021-08-20T20:24:27Z</time>
      </trkpt>
      <trkpt lat="42.97791" lon="-0.40809">
        <ele>644</ele>
        <time>2021-08-20T20:24:30Z</time>
      </trkpt>
      <trkpt lat="42.97784" lon="-0.40787">
        <ele>643</ele>
        <time>2021-08-20T20:24:33Z</time>
      </trkpt>
      <trkpt lat="42.97777" lon="-0.40768">
        <ele>642</ele>
        <time>2021-08-20T20:24:36Z</time>
      </trkpt>
      <trkpt lat="42.97769" lon="-0.40755">
        <ele>643</ele>
        <time>2021-08-20T20:24:38Z</time>
      </trkpt>
      <trkpt lat="42.97757" lon="-0.40741">
        <ele>645</ele>
        <time>2021-08-20T20:24:41Z</time>
      </trkpt>
      <trkpt lat="42.97739" lon="-0.40728">
        <ele>647</ele>
        <time>2021-08-20T20:24:45Z</time>
      </trkpt>
      <trkpt lat="42.97716" lon="-0.40715">
        <ele>652</ele>
        <time>2021-08-20T20:24:49Z</time>
      </trkpt>
      <trkpt lat="42.97708" lon="-0.40709">
        <ele>653</ele>
        <time>2021-08-20T20:24:51Z</time>
      </trkpt>
      <trkpt lat="42.977" lon="-0.407">
        <ele>655</ele>
        <time>2021-08-20T20:24:53Z</time>
      </trkpt>
      <trkpt lat="42.97695" lon="-0.40691">
        <ele>656</ele>
        <time>2021-08-20T20:24:54Z</time>
      </trkpt>
      <trkpt lat="42.97684" lon="-0.40665">
        <ele>658</ele>
        <time>2021-08-20T20:24:58Z</time>
      </trkpt>
      <trkpt lat="42.97667" lon="-0.40587">
        <ele>658</ele>
        <time>2021-08-20T20:25:09Z</time>
      </trkpt>
      <trkpt lat="42.97657" lon="-0.40565">
        <ele>657</ele>
        <time>2021-08-20T20:25:12Z</time>
      </trkpt>
      <trkpt lat="42.9764" lon="-0.40546">
        <ele>658</ele>
        <time>2021-08-20T20:25:16Z</time>
      </trkpt>
      <trkpt lat="42.97623" lon="-0.40534">
        <ele>660</ele>
        <time>2021-08-20T20:25:19Z</time>
      </trkpt>
      <trkpt lat="42.97573" lon="-0.4051">
        <ele>671</ele>
        <time>2021-08-20T20:25:29Z</time>
      </trkpt>
      <trkpt lat="42.97558" lon="-0.40499">
        <ele>674</ele>
        <time>2021-08-20T20:25:32Z</time>
      </trkpt>
      <trkpt lat="42.97506" lon="-0.40426">
        <ele>680</ele>
        <time>2021-08-20T20:25:45Z</time>
      </trkpt>
      <trkpt lat="42.97495" lon="-0.40407">
        <ele>683</ele>
        <time>2021-08-20T20:25:48Z</time>
      </trkpt>
      <trkpt lat="42.97487" lon="-0.40356">
        <ele>682</ele>
        <time>2021-08-20T20:25:55Z</time>
      </trkpt>
      <trkpt lat="42.97482" lon="-0.40339">
        <ele>684</ele>
        <time>2021-08-20T20:25:57Z</time>
      </trkpt>
      <trkpt lat="42.97472" lon="-0.40312">
        <ele>688</ele>
        <time>2021-08-20T20:26:01Z</time>
      </trkpt>
      <trkpt lat="42.97466" lon="-0.40274">
        <ele>689</ele>
        <time>2021-08-20T20:26:06Z</time>
      </trkpt>
      <trkpt lat="42.97467" lon="-0.40255">
        <ele>688</ele>
        <time>2021-08-20T20:26:09Z</time>
      </trkpt>
      <trkpt lat="42.97466" lon="-0.40205">
        <ele>689</ele>
        <time>2021-08-20T20:26:15Z</time>
      </trkpt>
      <trkpt lat="42.97443" lon="-0.40073">
        <ele>696</ele>
        <time>2021-08-20T20:26:33Z</time>
      </trkpt>
      <trkpt lat="42.97441" lon="-0.40054">
        <ele>698</ele>
        <time>2021-08-20T20:26:35Z</time>
      </trkpt>
      <trkpt lat="42.97441" lon="-0.40036">
        <ele>697</ele>
        <time>2021-08-20T20:26:38Z</time>
      </trkpt>
      <trkpt lat="42.97446" lon="-0.39979">
        <ele>696</ele>
        <time>2021-08-20T20:26:45Z</time>
      </trkpt>
      <trkpt lat="42.97446" lon="-0.39978">
        <ele>696</ele>
        <time>2021-08-20T20:26:45Z</time>
      </trkpt>
      <trkpt lat="42.97446" lon="-0.39952">
        <ele>697</ele>
        <time>2021-08-20T20:26:49Z</time>
      </trkpt>
      <trkpt lat="42.97444" lon="-0.39924">
        <ele>700</ele>
        <time>2021-08-20T20:26:52Z</time>
      </trkpt>
      <trkpt lat="42.97433" lon="-0.39872">
        <ele>704</ele>
        <time>2021-08-20T20:27:00Z</time>
      </trkpt>
      <trkpt lat="42.97429" lon="-0.39826">
        <ele>702</ele>
        <time>2021-08-20T20:27:06Z</time>
      </trkpt>
      <trkpt lat="42.97422" lon="-0.39801">
        <ele>702</ele>
        <time>2021-08-20T20:27:09Z</time>
      </trkpt>
      <trkpt lat="42.97418" lon="-0.39793">
        <ele>703</ele>
        <time>2021-08-20T20:27:10Z</time>
      </trkpt>
      <trkpt lat="42.97395" lon="-0.39765">
        <ele>711</ele>
        <time>2021-08-20T20:27:16Z</time>
      </trkpt>
      <trkpt lat="42.97388" lon="-0.39751">
        <ele>713</ele>
        <time>2021-08-20T20:27:18Z</time>
      </trkpt>
      <trkpt lat="42.97384" lon="-0.39735">
        <ele>717</ele>
        <time>2021-08-20T20:27:20Z</time>
      </trkpt>
      <trkpt lat="42.97383" lon="-0.3972">
        <ele>719</ele>
        <time>2021-08-20T20:27:22Z</time>
      </trkpt>
      <trkpt lat="42.97384" lon="-0.39708">
        <ele>719</ele>
        <time>2021-08-20T20:27:24Z</time>
      </trkpt>
      <trkpt lat="42.97395" lon="-0.39679">
        <ele>714</ele>
        <time>2021-08-20T20:27:28Z</time>
      </trkpt>
      <trkpt lat="42.97401" lon="-0.39656">
        <ele>712</ele>
        <time>2021-08-20T20:27:31Z</time>
      </trkpt>
      <trkpt lat="42.97403" lon="-0.39609">
        <ele>716</ele>
        <time>2021-08-20T20:27:37Z</time>
      </trkpt>
      <trkpt lat="42.97406" lon="-0.39597">
        <ele>716</ele>
        <time>2021-08-20T20:27:39Z</time>
      </trkpt>
      <trkpt lat="42.97414" lon="-0.39581">
        <ele>712</ele>
        <time>2021-08-20T20:27:41Z</time>
      </trkpt>
      <trkpt lat="42.97417" lon="-0.39568">
        <ele>711</ele>
        <time>2021-08-20T20:27:43Z</time>
      </trkpt>
      <trkpt lat="42.97417" lon="-0.39545">
        <ele>713</ele>
        <time>2021-08-20T20:27:46Z</time>
      </trkpt>
      <trkpt lat="42.97414" lon="-0.39532">
        <ele>716</ele>
        <time>2021-08-20T20:27:48Z</time>
      </trkpt>
      <trkpt lat="42.97407" lon="-0.39505">
        <ele>722</ele>
        <time>2021-08-20T20:27:52Z</time>
      </trkpt>
      <trkpt lat="42.97403" lon="-0.39486">
        <ele>723</ele>
        <time>2021-08-20T20:27:54Z</time>
      </trkpt>
      <trkpt lat="42.97399" lon="-0.39425">
        <ele>716</ele>
        <time>2021-08-20T20:28:02Z</time>
      </trkpt>
      <trkpt lat="42.97396" lon="-0.39413">
        <ele>716</ele>
        <time>2021-08-20T20:28:04Z</time>
      </trkpt>
      <trkpt lat="42.97391" lon="-0.39398">
        <ele>716</ele>
        <time>2021-08-20T20:28:06Z</time>
      </trkpt>
      <trkpt lat="42.97386" lon="-0.39388">
        <ele>716</ele>
        <time>2021-08-20T20:28:08Z</time>
      </trkpt>
      <trkpt lat="42.97377" lon="-0.39381">
        <ele>719</ele>
        <time>2021-08-20T20:28:10Z</time>
      </trkpt>
      <trkpt lat="42.97332" lon="-0.39357">
        <ele>731</ele>
        <time>2021-08-20T20:28:18Z</time>
      </trkpt>
      <trkpt lat="42.97306" lon="-0.39339">
        <ele>741</ele>
        <time>2021-08-20T20:28:23Z</time>
      </trkpt>
      <trkpt lat="42.9725" lon="-0.39276">
        <ele>752</ele>
        <time>2021-08-20T20:28:36Z</time>
      </trkpt>
      <trkpt lat="42.97237" lon="-0.39261">
        <ele>754</ele>
        <time>2021-08-20T20:28:39Z</time>
      </trkpt>
      <trkpt lat="42.97189" lon="-0.39184">
        <ele>755</ele>
        <time>2021-08-20T20:28:52Z</time>
      </trkpt>
      <trkpt lat="42.97199" lon="-0.39147">
        <ele>750</ele>
        <time>2021-08-20T20:28:58Z</time>
      </trkpt>
      <trkpt lat="42.97212" lon="-0.39124">
        <ele>750</ele>
        <time>2021-08-20T20:29:01Z</time>
      </trkpt>
      <trkpt lat="42.97222" lon="-0.39134">
        <ele>748</ele>
        <time>2021-08-20T20:29:04Z</time>
      </trkpt>
      <trkpt lat="42.97273" lon="-0.39211">
        <ele>738</ele>
        <time>2021-08-20T20:29:17Z</time>
      </trkpt>
      <trkpt lat="42.97278" lon="-0.392">
        <ele>737</ele>
        <time>2021-08-20T20:29:19Z</time>
      </trkpt>
      <trkpt lat="42.97316" lon="-0.39157">
        <ele>734</ele>
        <time>2021-08-20T20:29:27Z</time>
      </trkpt>
      <trkpt lat="42.97323" lon="-0.3914">
        <ele>733</ele>
        <time>2021-08-20T20:29:30Z</time>
      </trkpt>
      <trkpt lat="42.9732" lon="-0.39119">
        <ele>732</ele>
        <time>2021-08-20T20:29:33Z</time>
      </trkpt>
      <trkpt lat="42.97313" lon="-0.39104">
        <ele>733</ele>
        <time>2021-08-20T20:29:35Z</time>
      </trkpt>
      <trkpt lat="42.97291" lon="-0.39052">
        <ele>741</ele>
        <time>2021-08-20T20:29:43Z</time>
      </trkpt>
      <trkpt lat="42.9728" lon="-0.39015">
        <ele>748</ele>
        <time>2021-08-20T20:29:48Z</time>
      </trkpt>
      <trkpt lat="42.97273" lon="-0.38978">
        <ele>752</ele>
        <time>2021-08-20T20:29:53Z</time>
      </trkpt>
      <trkpt lat="42.97257" lon="-0.38921">
        <ele>756</ele>
        <time>2021-08-20T20:30:01Z</time>
      </trkpt>
      <trkpt lat="42.97237" lon="-0.38881">
        <ele>762</ele>
        <time>2021-08-20T20:30:07Z</time>
      </trkpt>
      <trkpt lat="42.9722" lon="-0.38838">
        <ele>770</ele>
        <time>2021-08-20T20:30:14Z</time>
      </trkpt>
      <trkpt lat="42.97214" lon="-0.38793">
        <ele>774</ele>
        <time>2021-08-20T20:30:20Z</time>
      </trkpt>
      <trkpt lat="42.97169" lon="-0.38626">
        <ele>794</ele>
        <time>2021-08-20T20:30:43Z</time>
      </trkpt>
      <trkpt lat="42.97184" lon="-0.38554">
        <ele>790</ele>
        <time>2021-08-20T20:30:53Z</time>
      </trkpt>
      <trkpt lat="42.97188" lon="-0.3851">
        <ele>793</ele>
        <time>2021-08-20T20:30:58Z</time>
      </trkpt>
      <trkpt lat="42.9718" lon="-0.38471">
        <ele>794</ele>
        <time>2021-08-20T20:31:04Z</time>
      </trkpt>
      <trkpt lat="42.97153" lon="-0.38411">
        <ele>798</ele>
        <time>2021-08-20T20:31:13Z</time>
      </trkpt>
      <trkpt lat="42.97108" lon="-0.38283">
        <ele>809</ele>
        <time>2021-08-20T20:31:31Z</time>
      </trkpt>
      <trkpt lat="42.97098" lon="-0.3827">
        <ele>809</ele>
        <time>2021-08-20T20:31:34Z</time>
      </trkpt>
      <trkpt lat="42.97045" lon="-0.38236">
        <ele>815</ele>
        <time>2021-08-20T20:31:44Z</time>
      </trkpt>
      <trkpt lat="42.97033" lon="-0.3822">
        <ele>817</ele>
        <time>2021-08-20T20:31:47Z</time>
      </trkpt>
      <trkpt lat="42.97028" lon="-0.38208">
        <ele>817</ele>
        <time>2021-08-20T20:31:49Z</time>
      </trkpt>
      <trkpt lat="42.97007" lon="-0.38109">
        <ele>813</ele>
        <time>2021-08-20T20:32:02Z</time>
      </trkpt>
      <trkpt lat="42.97" lon="-0.38093">
        <ele>811</ele>
        <time>2021-08-20T20:32:05Z</time>
      </trkpt>
      <trkpt lat="42.96983" lon="-0.38066">
        <ele>814</ele>
        <time>2021-08-20T20:32:09Z</time>
      </trkpt>
      <trkpt lat="42.96975" lon="-0.3806">
        <ele>816</ele>
        <time>2021-08-20T20:32:11Z</time>
      </trkpt>
      <trkpt lat="42.96972" lon="-0.38061">
        <ele>816</ele>
        <time>2021-08-20T20:32:12Z</time>
      </trkpt>
      <trkpt lat="42.96967" lon="-0.38067">
        <ele>817</ele>
        <time>2021-08-20T20:32:13Z</time>
      </trkpt>
      <trkpt lat="42.96967" lon="-0.38074">
        <ele>817</ele>
        <time>2021-08-20T20:32:14Z</time>
      </trkpt>
      <trkpt lat="42.96967" lon="-0.38086">
        <ele>817</ele>
        <time>2021-08-20T20:32:15Z</time>
      </trkpt>
      <trkpt lat="42.96976" lon="-0.38116">
        <ele>819</ele>
        <time>2021-08-20T20:32:20Z</time>
      </trkpt>
      <trkpt lat="42.96993" lon="-0.38147">
        <ele>819</ele>
        <time>2021-08-20T20:32:25Z</time>
      </trkpt>
      <trkpt lat="42.96996" lon="-0.38157">
        <ele>820</ele>
        <time>2021-08-20T20:32:26Z</time>
      </trkpt>
      <trkpt lat="42.96997" lon="-0.38167">
        <ele>821</ele>
        <time>2021-08-20T20:32:27Z</time>
      </trkpt>
      <trkpt lat="42.96996" lon="-0.38212">
        <ele>824</ele>
        <time>2021-08-20T20:32:33Z</time>
      </trkpt>
      <trkpt lat="42.97001" lon="-0.38241">
        <ele>825</ele>
        <time>2021-08-20T20:32:37Z</time>
      </trkpt>
      <trkpt lat="42.96999" lon="-0.38253">
        <ele>827</ele>
        <time>2021-08-20T20:32:39Z</time>
      </trkpt>
      <trkpt lat="42.96993" lon="-0.38256">
        <ele>828</ele>
        <time>2021-08-20T20:32:40Z</time>
      </trkpt>
      <trkpt lat="42.96989" lon="-0.38253">
        <ele>829</ele>
        <time>2021-08-20T20:32:41Z</time>
      </trkpt>
      <trkpt lat="42.96986" lon="-0.38248">
        <ele>829</ele>
        <time>2021-08-20T20:32:41Z</time>
      </trkpt>
      <trkpt lat="42.96985" lon="-0.38238">
        <ele>828</ele>
        <time>2021-08-20T20:32:43Z</time>
      </trkpt>
      <trkpt lat="42.96982" lon="-0.38222">
        <ele>828</ele>
        <time>2021-08-20T20:32:45Z</time>
      </trkpt>
      <trkpt lat="42.9698" lon="-0.38171">
        <ele>824</ele>
        <time>2021-08-20T20:32:52Z</time>
      </trkpt>
      <trkpt lat="42.96977" lon="-0.3816">
        <ele>824</ele>
        <time>2021-08-20T20:32:53Z</time>
      </trkpt>
      <trkpt lat="42.96973" lon="-0.38152">
        <ele>824</ele>
        <time>2021-08-20T20:32:54Z</time>
      </trkpt>
      <trkpt lat="42.96968" lon="-0.38147">
        <ele>824</ele>
        <time>2021-08-20T20:32:55Z</time>
      </trkpt>
      <trkpt lat="42.96952" lon="-0.38137">
        <ele>826</ele>
        <time>2021-08-20T20:32:59Z</time>
      </trkpt>
      <trkpt lat="42.96945" lon="-0.38126">
        <ele>826</ele>
        <time>2021-08-20T20:33:00Z</time>
      </trkpt>
      <trkpt lat="42.96939" lon="-0.38106">
        <ele>825</ele>
        <time>2021-08-20T20:33:03Z</time>
      </trkpt>
      <trkpt lat="42.96936" lon="-0.381">
        <ele>825</ele>
        <time>2021-08-20T20:33:04Z</time>
      </trkpt>
      <trkpt lat="42.96931" lon="-0.38095">
        <ele>825</ele>
        <time>2021-08-20T20:33:05Z</time>
      </trkpt>
      <trkpt lat="42.96918" lon="-0.38091">
        <ele>828</ele>
        <time>2021-08-20T20:33:08Z</time>
      </trkpt>
      <trkpt lat="42.96893" lon="-0.38095">
        <ele>838</ele>
        <time>2021-08-20T20:33:12Z</time>
      </trkpt>
      <trkpt lat="42.96887" lon="-0.38093">
        <ele>840</ele>
        <time>2021-08-20T20:33:13Z</time>
      </trkpt>
      <trkpt lat="42.96881" lon="-0.38089">
        <ele>841</ele>
        <time>2021-08-20T20:33:14Z</time>
      </trkpt>
      <trkpt lat="42.96866" lon="-0.38071">
        <ele>846</ele>
        <time>2021-08-20T20:33:18Z</time>
      </trkpt>
      <trkpt lat="42.96863" lon="-0.38065">
        <ele>846</ele>
        <time>2021-08-20T20:33:19Z</time>
      </trkpt>
      <trkpt lat="42.96861" lon="-0.38058">
        <ele>847</ele>
        <time>2021-08-20T20:33:20Z</time>
      </trkpt>
      <trkpt lat="42.96861" lon="-0.38049">
        <ele>846</ele>
        <time>2021-08-20T20:33:21Z</time>
      </trkpt>
      <trkpt lat="42.96865" lon="-0.38034">
        <ele>843</ele>
        <time>2021-08-20T20:33:23Z</time>
      </trkpt>
      <trkpt lat="42.96877" lon="-0.38018">
        <ele>838</ele>
        <time>2021-08-20T20:33:26Z</time>
      </trkpt>
      <trkpt lat="42.96883" lon="-0.38005">
        <ele>834</ele>
        <time>2021-08-20T20:33:28Z</time>
      </trkpt>
      <trkpt lat="42.96884" lon="-0.37997">
        <ele>833</ele>
        <time>2021-08-20T20:33:29Z</time>
      </trkpt>
      <trkpt lat="42.96882" lon="-0.37975">
        <ele>833</ele>
        <time>2021-08-20T20:33:32Z</time>
      </trkpt>
      <trkpt lat="42.96874" lon="-0.37956">
        <ele>835</ele>
        <time>2021-08-20T20:33:35Z</time>
      </trkpt>
      <trkpt lat="42.96868" lon="-0.37951">
        <ele>836</ele>
        <time>2021-08-20T20:33:36Z</time>
      </trkpt>
      <trkpt lat="42.96853" lon="-0.37945">
        <ele>841</ele>
        <time>2021-08-20T20:33:39Z</time>
      </trkpt>
      <trkpt lat="42.96837" lon="-0.37944">
        <ele>845</ele>
        <time>2021-08-20T20:33:42Z</time>
      </trkpt>
      <trkpt lat="42.9683" lon="-0.37941">
        <ele>848</ele>
        <time>2021-08-20T20:33:43Z</time>
      </trkpt>
      <trkpt lat="42.96819" lon="-0.37932">
        <ele>853</ele>
        <time>2021-08-20T20:33:45Z</time>
      </trkpt>
      <trkpt lat="42.96816" lon="-0.37925">
        <ele>854</ele>
        <time>2021-08-20T20:33:46Z</time>
      </trkpt>
      <trkpt lat="42.96815" lon="-0.37917">
        <ele>854</ele>
        <time>2021-08-20T20:33:48Z</time>
      </trkpt>
      <trkpt lat="42.96817" lon="-0.37874">
        <ele>849</ele>
        <time>2021-08-20T20:33:53Z</time>
      </trkpt>
      <trkpt lat="42.96816" lon="-0.3786">
        <ele>848</ele>
        <time>2021-08-20T20:33:55Z</time>
      </trkpt>
      <trkpt lat="42.96796" lon="-0.37814">
        <ele>856</ele>
        <time>2021-08-20T20:34:02Z</time>
      </trkpt>
      <trkpt lat="42.96794" lon="-0.378">
        <ele>856</ele>
        <time>2021-08-20T20:34:04Z</time>
      </trkpt>
      <trkpt lat="42.96793" lon="-0.3776">
        <ele>854</ele>
        <time>2021-08-20T20:34:09Z</time>
      </trkpt>
      <trkpt lat="42.96792" lon="-0.3775">
        <ele>854</ele>
        <time>2021-08-20T20:34:10Z</time>
      </trkpt>
      <trkpt lat="42.96789" lon="-0.3774">
        <ele>855</ele>
        <time>2021-08-20T20:34:12Z</time>
      </trkpt>
      <trkpt lat="42.96783" lon="-0.37731">
        <ele>857</ele>
        <time>2021-08-20T20:34:13Z</time>
      </trkpt>
      <trkpt lat="42.96759" lon="-0.37704">
        <ele>864</ele>
        <time>2021-08-20T20:34:19Z</time>
      </trkpt>
      <trkpt lat="42.96754" lon="-0.37693">
        <ele>864</ele>
        <time>2021-08-20T20:34:21Z</time>
      </trkpt>
      <trkpt lat="42.9675" lon="-0.37679">
        <ele>864</ele>
        <time>2021-08-20T20:34:22Z</time>
      </trkpt>
      <trkpt lat="42.96748" lon="-0.37661">
        <ele>864</ele>
        <time>2021-08-20T20:34:25Z</time>
      </trkpt>
      <trkpt lat="42.9675" lon="-0.37647">
        <ele>862</ele>
        <time>2021-08-20T20:34:27Z</time>
      </trkpt>
      <trkpt lat="42.96756" lon="-0.37639">
        <ele>860</ele>
        <time>2021-08-20T20:34:28Z</time>
      </trkpt>
      <trkpt lat="42.96778" lon="-0.37616">
        <ele>856</ele>
        <time>2021-08-20T20:34:33Z</time>
      </trkpt>
      <trkpt lat="42.96796" lon="-0.37596">
        <ele>854</ele>
        <time>2021-08-20T20:34:37Z</time>
      </trkpt>
      <trkpt lat="42.96797" lon="-0.37581">
        <ele>855</ele>
        <time>2021-08-20T20:34:39Z</time>
      </trkpt>
      <trkpt lat="42.96791" lon="-0.37568">
        <ele>857</ele>
        <time>2021-08-20T20:34:41Z</time>
      </trkpt>
      <trkpt lat="42.96776" lon="-0.37555">
        <ele>859</ele>
        <time>2021-08-20T20:34:44Z</time>
      </trkpt>
      <trkpt lat="42.96763" lon="-0.37534">
        <ele>861</ele>
        <time>2021-08-20T20:34:48Z</time>
      </trkpt>
      <trkpt lat="42.96759" lon="-0.37486">
        <ele>863</ele>
        <time>2021-08-20T20:34:54Z</time>
      </trkpt>
      <trkpt lat="42.96749" lon="-0.37427">
        <ele>869</ele>
        <time>2021-08-20T20:35:02Z</time>
      </trkpt>
      <trkpt lat="42.96752" lon="-0.37351">
        <ele>869</ele>
        <time>2021-08-20T20:35:12Z</time>
      </trkpt>
      <trkpt lat="42.96737" lon="-0.37224">
        <ele>877</ele>
        <time>2021-08-20T20:35:29Z</time>
      </trkpt>
      <trkpt lat="42.9674" lon="-0.37191">
        <ele>877</ele>
        <time>2021-08-20T20:35:33Z</time>
      </trkpt>
      <trkpt lat="42.96749" lon="-0.37173">
        <ele>877</ele>
        <time>2021-08-20T20:35:36Z</time>
      </trkpt>
      <trkpt lat="42.96758" lon="-0.37164">
        <ele>879</ele>
        <time>2021-08-20T20:35:38Z</time>
      </trkpt>
      <trkpt lat="42.9677" lon="-0.37164">
        <ele>881</ele>
        <time>2021-08-20T20:35:40Z</time>
      </trkpt>
      <trkpt lat="42.96782" lon="-0.3717">
        <ele>883</ele>
        <time>2021-08-20T20:35:42Z</time>
      </trkpt>
      <trkpt lat="42.96817" lon="-0.37237">
        <ele>885</ele>
        <time>2021-08-20T20:35:53Z</time>
      </trkpt>
      <trkpt lat="42.96835" lon="-0.37256">
        <ele>888</ele>
        <time>2021-08-20T20:35:57Z</time>
      </trkpt>
      <trkpt lat="42.9686" lon="-0.37264">
        <ele>890</ele>
        <time>2021-08-20T20:36:02Z</time>
      </trkpt>
      <trkpt lat="42.96883" lon="-0.37257">
        <ele>894</ele>
        <time>2021-08-20T20:36:06Z</time>
      </trkpt>
      <trkpt lat="42.96898" lon="-0.37246">
        <ele>896</ele>
        <time>2021-08-20T20:36:09Z</time>
      </trkpt>
      <trkpt lat="42.96906" lon="-0.37227">
        <ele>899</ele>
        <time>2021-08-20T20:36:12Z</time>
      </trkpt>
      <trkpt lat="42.96906" lon="-0.37202">
        <ele>901</ele>
        <time>2021-08-20T20:36:15Z</time>
      </trkpt>
      <trkpt lat="42.96887" lon="-0.37161">
        <ele>902</ele>
        <time>2021-08-20T20:36:21Z</time>
      </trkpt>
      <trkpt lat="42.96884" lon="-0.37146">
        <ele>903</ele>
        <time>2021-08-20T20:36:23Z</time>
      </trkpt>
      <trkpt lat="42.96883" lon="-0.37134">
        <ele>903</ele>
        <time>2021-08-20T20:36:25Z</time>
      </trkpt>
      <trkpt lat="42.96892" lon="-0.37093">
        <ele>909</ele>
        <time>2021-08-20T20:36:31Z</time>
      </trkpt>
      <trkpt lat="42.96891" lon="-0.3708">
        <ele>910</ele>
        <time>2021-08-20T20:36:32Z</time>
      </trkpt>
      <trkpt lat="42.96887" lon="-0.37065">
        <ele>912</ele>
        <time>2021-08-20T20:36:34Z</time>
      </trkpt>
      <trkpt lat="42.96878" lon="-0.37044">
        <ele>914</ele>
        <time>2021-08-20T20:36:37Z</time>
      </trkpt>
      <trkpt lat="42.96859" lon="-0.37005">
        <ele>916</ele>
        <time>2021-08-20T20:36:44Z</time>
      </trkpt>
      <trkpt lat="42.96829" lon="-0.36953">
        <ele>918</ele>
        <time>2021-08-20T20:36:52Z</time>
      </trkpt>
      <trkpt lat="42.96815" lon="-0.36901">
        <ele>924</ele>
        <time>2021-08-20T20:36:59Z</time>
      </trkpt>
      <trkpt lat="42.96795" lon="-0.36855">
        <ele>928</ele>
        <time>2021-08-20T20:37:06Z</time>
      </trkpt>
      <trkpt lat="42.96785" lon="-0.36827">
        <ele>929</ele>
        <time>2021-08-20T20:37:10Z</time>
      </trkpt>
      <trkpt lat="42.96774" lon="-0.36783">
        <ele>932</ele>
        <time>2021-08-20T20:37:16Z</time>
      </trkpt>
      <trkpt lat="42.96771" lon="-0.36763">
        <ele>934</ele>
        <time>2021-08-20T20:37:19Z</time>
      </trkpt>
      <trkpt lat="42.96767" lon="-0.3671">
        <ele>939</ele>
        <time>2021-08-20T20:37:26Z</time>
      </trkpt>
      <trkpt lat="42.96759" lon="-0.36662">
        <ele>939</ele>
        <time>2021-08-20T20:37:32Z</time>
      </trkpt>
      <trkpt lat="42.96748" lon="-0.36618">
        <ele>943</ele>
        <time>2021-08-20T20:37:39Z</time>
      </trkpt>
      <trkpt lat="42.96726" lon="-0.3656">
        <ele>946</ele>
        <time>2021-08-20T20:37:47Z</time>
      </trkpt>
      <trkpt lat="42.96722" lon="-0.36545">
        <ele>946</ele>
        <time>2021-08-20T20:37:49Z</time>
      </trkpt>
      <trkpt lat="42.96719" lon="-0.36492">
        <ele>951</ele>
        <time>2021-08-20T20:37:56Z</time>
      </trkpt>
      <trkpt lat="42.96716" lon="-0.3647">
        <ele>954</ele>
        <time>2021-08-20T20:37:59Z</time>
      </trkpt>
      <trkpt lat="42.96697" lon="-0.36406">
        <ele>956</ele>
        <time>2021-08-20T20:38:08Z</time>
      </trkpt>
      <trkpt lat="42.96692" lon="-0.36338">
        <ele>965</ele>
        <time>2021-08-20T20:38:17Z</time>
      </trkpt>
      <trkpt lat="42.96687" lon="-0.36305">
        <ele>968</ele>
        <time>2021-08-20T20:38:21Z</time>
      </trkpt>
      <trkpt lat="42.96672" lon="-0.36246">
        <ele>971</ele>
        <time>2021-08-20T20:38:29Z</time>
      </trkpt>
      <trkpt lat="42.96646" lon="-0.36128">
        <ele>977</ele>
        <time>2021-08-20T20:38:45Z</time>
      </trkpt>
      <trkpt lat="42.96643" lon="-0.36066">
        <ele>983</ele>
        <time>2021-08-20T20:38:53Z</time>
      </trkpt>
      <trkpt lat="42.96627" lon="-0.35993">
        <ele>987</ele>
        <time>2021-08-20T20:39:03Z</time>
      </trkpt>
      <trkpt lat="42.96626" lon="-0.35935">
        <ele>991</ele>
        <time>2021-08-20T20:39:11Z</time>
      </trkpt>
      <trkpt lat="42.96623" lon="-0.35871">
        <ele>998</ele>
        <time>2021-08-20T20:39:19Z</time>
      </trkpt>
      <trkpt lat="42.96617" lon="-0.3582">
        <ele>1004</ele>
        <time>2021-08-20T20:39:26Z</time>
      </trkpt>
      <trkpt lat="42.96605" lon="-0.35769">
        <ele>1009</ele>
        <time>2021-08-20T20:39:33Z</time>
      </trkpt>
      <trkpt lat="42.96594" lon="-0.35721">
        <ele>1012</ele>
        <time>2021-08-20T20:39:40Z</time>
      </trkpt>
      <trkpt lat="42.96564" lon="-0.35617">
        <ele>1020</ele>
        <time>2021-08-20T20:39:54Z</time>
      </trkpt>
      <trkpt lat="42.96546" lon="-0.35593">
        <ele>1023</ele>
        <time>2021-08-20T20:39:59Z</time>
      </trkpt>
      <trkpt lat="42.96516" lon="-0.35567">
        <ele>1024</ele>
        <time>2021-08-20T20:40:05Z</time>
      </trkpt>
      <trkpt lat="42.96497" lon="-0.35538">
        <ele>1026</ele>
        <time>2021-08-20T20:40:10Z</time>
      </trkpt>
      <trkpt lat="42.96453" lon="-0.3549">
        <ele>1025</ele>
        <time>2021-08-20T20:40:20Z</time>
      </trkpt>
      <trkpt lat="42.96411" lon="-0.35419">
        <ele>1031</ele>
        <time>2021-08-20T20:40:32Z</time>
      </trkpt>
      <trkpt lat="42.96399" lon="-0.35369">
        <ele>1038</ele>
        <time>2021-08-20T20:40:39Z</time>
      </trkpt>
      <trkpt lat="42.96384" lon="-0.35341">
        <ele>1041</ele>
        <time>2021-08-20T20:40:43Z</time>
      </trkpt>
      <trkpt lat="42.96365" lon="-0.35322">
        <ele>1042</ele>
        <time>2021-08-20T20:40:47Z</time>
      </trkpt>
      <trkpt lat="42.96354" lon="-0.35295">
        <ele>1044</ele>
        <time>2021-08-20T20:40:51Z</time>
      </trkpt>
      <trkpt lat="42.96344" lon="-0.35251">
        <ele>1050</ele>
        <time>2021-08-20T20:40:57Z</time>
      </trkpt>
      <trkpt lat="42.96339" lon="-0.35145">
        <ele>1056</ele>
        <time>2021-08-20T20:41:11Z</time>
      </trkpt>
      <trkpt lat="42.96345" lon="-0.35117">
        <ele>1060</ele>
        <time>2021-08-20T20:41:15Z</time>
      </trkpt>
      <trkpt lat="42.96379" lon="-0.35062">
        <ele>1074</ele>
        <time>2021-08-20T20:41:24Z</time>
      </trkpt>
      <trkpt lat="42.96378" lon="-0.35036">
        <ele>1074</ele>
        <time>2021-08-20T20:41:28Z</time>
      </trkpt>
      <trkpt lat="42.96389" lon="-0.34945">
        <ele>1081</ele>
        <time>2021-08-20T20:41:40Z</time>
      </trkpt>
      <trkpt lat="42.96394" lon="-0.34917">
        <ele>1083</ele>
        <time>2021-08-20T20:41:44Z</time>
      </trkpt>
      <trkpt lat="42.96427" lon="-0.34874">
        <ele>1089</ele>
        <time>2021-08-20T20:41:52Z</time>
      </trkpt>
      <trkpt lat="42.96431" lon="-0.34861">
        <ele>1092</ele>
        <time>2021-08-20T20:41:54Z</time>
      </trkpt>
      <trkpt lat="42.96427" lon="-0.34812">
        <ele>1094</ele>
        <time>2021-08-20T20:42:00Z</time>
      </trkpt>
      <trkpt lat="42.96419" lon="-0.34785">
        <ele>1094</ele>
        <time>2021-08-20T20:42:04Z</time>
      </trkpt>
      <trkpt lat="42.96403" lon="-0.34762">
        <ele>1098</ele>
        <time>2021-08-20T20:42:08Z</time>
      </trkpt>
      <trkpt lat="42.96401" lon="-0.34745">
        <ele>1100</ele>
        <time>2021-08-20T20:42:10Z</time>
      </trkpt>
      <trkpt lat="42.96404" lon="-0.34715">
        <ele>1104</ele>
        <time>2021-08-20T20:42:14Z</time>
      </trkpt>
      <trkpt lat="42.96407" lon="-0.34632">
        <ele>1117</ele>
        <time>2021-08-20T20:42:25Z</time>
      </trkpt>
      <trkpt lat="42.96399" lon="-0.34617">
        <ele>1121</ele>
        <time>2021-08-20T20:42:27Z</time>
      </trkpt>
      <trkpt lat="42.96394" lon="-0.34614">
        <ele>1123</ele>
        <time>2021-08-20T20:42:28Z</time>
      </trkpt>
      <trkpt lat="42.9638" lon="-0.34615">
        <ele>1125</ele>
        <time>2021-08-20T20:42:31Z</time>
      </trkpt>
      <trkpt lat="42.96375" lon="-0.34623">
        <ele>1124</ele>
        <time>2021-08-20T20:42:32Z</time>
      </trkpt>
      <trkpt lat="42.96356" lon="-0.34695">
        <ele>1114</ele>
        <time>2021-08-20T20:42:42Z</time>
      </trkpt>
      <trkpt lat="42.963" lon="-0.34762">
        <ele>1121</ele>
        <time>2021-08-20T20:42:55Z</time>
      </trkpt>
      <trkpt lat="42.96278" lon="-0.34778">
        <ele>1129</ele>
        <time>2021-08-20T20:43:00Z</time>
      </trkpt>
      <trkpt lat="42.96242" lon="-0.34876">
        <ele>1129</ele>
        <time>2021-08-20T20:43:14Z</time>
      </trkpt>
      <trkpt lat="42.96235" lon="-0.34921">
        <ele>1127</ele>
        <time>2021-08-20T20:43:20Z</time>
      </trkpt>
      <trkpt lat="42.96234" lon="-0.34956">
        <ele>1123</ele>
        <time>2021-08-20T20:43:25Z</time>
      </trkpt>
      <trkpt lat="42.96228" lon="-0.34965">
        <ele>1126</ele>
        <time>2021-08-20T20:43:26Z</time>
      </trkpt>
      <trkpt lat="42.96222" lon="-0.34967">
        <ele>1130</ele>
        <time>2021-08-20T20:43:27Z</time>
      </trkpt>
      <trkpt lat="42.96219" lon="-0.34962">
        <ele>1133</ele>
        <time>2021-08-20T20:43:28Z</time>
      </trkpt>
      <trkpt lat="42.96229" lon="-0.34852">
        <ele>1144</ele>
        <time>2021-08-20T20:43:43Z</time>
      </trkpt>
      <trkpt lat="42.96255" lon="-0.34714">
        <ele>1152</ele>
        <time>2021-08-20T20:44:01Z</time>
      </trkpt>
      <trkpt lat="42.96251" lon="-0.34599">
        <ele>1174</ele>
        <time>2021-08-20T20:44:16Z</time>
      </trkpt>
      <trkpt lat="42.96262" lon="-0.34564">
        <ele>1173</ele>
        <time>2021-08-20T20:44:21Z</time>
      </trkpt>
      <trkpt lat="42.96277" lon="-0.34561">
        <ele>1166</ele>
        <time>2021-08-20T20:44:24Z</time>
      </trkpt>
      <trkpt lat="42.96302" lon="-0.34551">
        <ele>1156</ele>
        <time>2021-08-20T20:44:28Z</time>
      </trkpt>
      <trkpt lat="42.96311" lon="-0.34503">
        <ele>1157</ele>
        <time>2021-08-20T20:44:35Z</time>
      </trkpt>
      <trkpt lat="42.96311" lon="-0.34461">
        <ele>1163</ele>
        <time>2021-08-20T20:44:40Z</time>
      </trkpt>
      <trkpt lat="42.96308" lon="-0.34427">
        <ele>1169</ele>
        <time>2021-08-20T20:44:45Z</time>
      </trkpt>
      <trkpt lat="42.96322" lon="-0.34377">
        <ele>1172</ele>
        <time>2021-08-20T20:44:52Z</time>
      </trkpt>
      <trkpt lat="42.96323" lon="-0.34321">
        <ele>1180</ele>
        <time>2021-08-20T20:44:59Z</time>
      </trkpt>
      <trkpt lat="42.9633" lon="-0.34285">
        <ele>1181</ele>
        <time>2021-08-20T20:45:04Z</time>
      </trkpt>
      <trkpt lat="42.96337" lon="-0.34255">
        <ele>1183</ele>
        <time>2021-08-20T20:45:08Z</time>
      </trkpt>
      <trkpt lat="42.9634" lon="-0.34221">
        <ele>1185</ele>
        <time>2021-08-20T20:45:13Z</time>
      </trkpt>
      <trkpt lat="42.96347" lon="-0.34193">
        <ele>1188</ele>
        <time>2021-08-20T20:45:16Z</time>
      </trkpt>
      <trkpt lat="42.96347" lon="-0.34165">
        <ele>1188</ele>
        <time>2021-08-20T20:45:20Z</time>
      </trkpt>
      <trkpt lat="42.9635" lon="-0.34129">
        <ele>1190</ele>
        <time>2021-08-20T20:45:25Z</time>
      </trkpt>
      <trkpt lat="42.96346" lon="-0.34112">
        <ele>1189</ele>
        <time>2021-08-20T20:45:27Z</time>
      </trkpt>
      <trkpt lat="42.96339" lon="-0.34089">
        <ele>1187</ele>
        <time>2021-08-20T20:45:30Z</time>
      </trkpt>
      <trkpt lat="42.963" lon="-0.33985">
        <ele>1186</ele>
        <time>2021-08-20T20:45:46Z</time>
      </trkpt>
      <trkpt lat="42.96299" lon="-0.33975">
        <ele>1186</ele>
        <time>2021-08-20T20:45:47Z</time>
      </trkpt>
      <trkpt lat="42.963" lon="-0.33962">
        <ele>1188</ele>
        <time>2021-08-20T20:45:49Z</time>
      </trkpt>
      <trkpt lat="42.96309" lon="-0.33943">
        <ele>1191</ele>
        <time>2021-08-20T20:45:51Z</time>
      </trkpt>
      <trkpt lat="42.96316" lon="-0.33938">
        <ele>1192</ele>
        <time>2021-08-20T20:45:53Z</time>
      </trkpt>
      <trkpt lat="42.96359" lon="-0.3393">
        <ele>1206</ele>
        <time>2021-08-20T20:46:01Z</time>
      </trkpt>
      <trkpt lat="42.96374" lon="-0.33932">
        <ele>1211</ele>
        <time>2021-08-20T20:46:03Z</time>
      </trkpt>
      <trkpt lat="42.96382" lon="-0.33936">
        <ele>1213</ele>
        <time>2021-08-20T20:46:05Z</time>
      </trkpt>
      <trkpt lat="42.9639" lon="-0.33944">
        <ele>1215</ele>
        <time>2021-08-20T20:46:07Z</time>
      </trkpt>
      <trkpt lat="42.96396" lon="-0.33953">
        <ele>1216</ele>
        <time>2021-08-20T20:46:08Z</time>
      </trkpt>
      <trkpt lat="42.96404" lon="-0.33971">
        <ele>1216</ele>
        <time>2021-08-20T20:46:11Z</time>
      </trkpt>
      <trkpt lat="42.96407" lon="-0.3399">
        <ele>1215</ele>
        <time>2021-08-20T20:46:13Z</time>
      </trkpt>
      <trkpt lat="42.96407" lon="-0.34009">
        <ele>1213</ele>
        <time>2021-08-20T20:46:16Z</time>
      </trkpt>
      <trkpt lat="42.96415" lon="-0.34132">
        <ele>1211</ele>
        <time>2021-08-20T20:46:32Z</time>
      </trkpt>
      <trkpt lat="42.96418" lon="-0.3415">
        <ele>1211</ele>
        <time>2021-08-20T20:46:34Z</time>
      </trkpt>
      <trkpt lat="42.96462" lon="-0.34308">
        <ele>1212</ele>
        <time>2021-08-20T20:46:56Z</time>
      </trkpt>
      <trkpt lat="42.96471" lon="-0.34333">
        <ele>1213</ele>
        <time>2021-08-20T20:47:00Z</time>
      </trkpt>
      <trkpt lat="42.96479" lon="-0.34343">
        <ele>1215</ele>
        <time>2021-08-20T20:47:02Z</time>
      </trkpt>
      <trkpt lat="42.9649" lon="-0.34346">
        <ele>1219</ele>
        <time>2021-08-20T20:47:04Z</time>
      </trkpt>
      <trkpt lat="42.96499" lon="-0.3434">
        <ele>1224</ele>
        <time>2021-08-20T20:47:06Z</time>
      </trkpt>
      <trkpt lat="42.96507" lon="-0.34324">
        <ele>1230</ele>
        <time>2021-08-20T20:47:08Z</time>
      </trkpt>
      <trkpt lat="42.96509" lon="-0.34301">
        <ele>1233</ele>
        <time>2021-08-20T20:47:11Z</time>
      </trkpt>
      <trkpt lat="42.96509" lon="-0.34264">
        <ele>1237</ele>
        <time>2021-08-20T20:47:16Z</time>
      </trkpt>
      <trkpt lat="42.96506" lon="-0.34212">
        <ele>1244</ele>
        <time>2021-08-20T20:47:23Z</time>
      </trkpt>
      <trkpt lat="42.96502" lon="-0.34175">
        <ele>1248</ele>
        <time>2021-08-20T20:47:28Z</time>
      </trkpt>
      <trkpt lat="42.96494" lon="-0.34082">
        <ele>1259</ele>
        <time>2021-08-20T20:47:40Z</time>
      </trkpt>
      <trkpt lat="42.9649" lon="-0.3406">
        <ele>1258</ele>
        <time>2021-08-20T20:47:43Z</time>
      </trkpt>
      <trkpt lat="42.96479" lon="-0.34021">
        <ele>1253</ele>
        <time>2021-08-20T20:47:48Z</time>
      </trkpt>
      <trkpt lat="42.96476" lon="-0.33996">
        <ele>1253</ele>
        <time>2021-08-20T20:47:52Z</time>
      </trkpt>
      <trkpt lat="42.96473" lon="-0.33946">
        <ele>1256</ele>
        <time>2021-08-20T20:47:58Z</time>
      </trkpt>
      <trkpt lat="42.96465" lon="-0.33921">
        <ele>1254</ele>
        <time>2021-08-20T20:48:02Z</time>
      </trkpt>
      <trkpt lat="42.96463" lon="-0.33907">
        <ele>1254</ele>
        <time>2021-08-20T20:48:04Z</time>
      </trkpt>
      <trkpt lat="42.96467" lon="-0.33858">
        <ele>1261</ele>
        <time>2021-08-20T20:48:10Z</time>
      </trkpt>
      <trkpt lat="42.96465" lon="-0.33846">
        <ele>1261</ele>
        <time>2021-08-20T20:48:12Z</time>
      </trkpt>
      <trkpt lat="42.9645" lon="-0.33801">
        <ele>1263</ele>
        <time>2021-08-20T20:48:18Z</time>
      </trkpt>
      <trkpt lat="42.96447" lon="-0.33784">
        <ele>1266</ele>
        <time>2021-08-20T20:48:20Z</time>
      </trkpt>
      <trkpt lat="42.9645" lon="-0.33739">
        <ele>1281</ele>
        <time>2021-08-20T20:48:26Z</time>
      </trkpt>
      <trkpt lat="42.9645" lon="-0.33721">
        <ele>1285</ele>
        <time>2021-08-20T20:48:29Z</time>
      </trkpt>
      <trkpt lat="42.96436" lon="-0.33642">
        <ele>1292</ele>
        <time>2021-08-20T20:48:39Z</time>
      </trkpt>
      <trkpt lat="42.96427" lon="-0.33575">
        <ele>1301</ele>
        <time>2021-08-20T20:48:48Z</time>
      </trkpt>
      <trkpt lat="42.96407" lon="-0.33516">
        <ele>1302</ele>
        <time>2021-08-20T20:48:56Z</time>
      </trkpt>
      <trkpt lat="42.96373" lon="-0.33437">
        <ele>1312</ele>
        <time>2021-08-20T20:49:08Z</time>
      </trkpt>
      <trkpt lat="42.96364" lon="-0.33412">
        <ele>1315</ele>
        <time>2021-08-20T20:49:12Z</time>
      </trkpt>
      <trkpt lat="42.96328" lon="-0.33351">
        <ele>1318</ele>
        <time>2021-08-20T20:49:22Z</time>
      </trkpt>
      <trkpt lat="42.96318" lon="-0.33337">
        <ele>1320</ele>
        <time>2021-08-20T20:49:25Z</time>
      </trkpt>
      <trkpt lat="42.96282" lon="-0.33302">
        <ele>1324</ele>
        <time>2021-08-20T20:49:33Z</time>
      </trkpt>
      <trkpt lat="42.96239" lon="-0.33265">
        <ele>1329</ele>
        <time>2021-08-20T20:49:42Z</time>
      </trkpt>
      <trkpt lat="42.96228" lon="-0.33263">
        <ele>1330</ele>
        <time>2021-08-20T20:49:44Z</time>
      </trkpt>
      <trkpt lat="42.96172" lon="-0.3326">
        <ele>1335</ele>
        <time>2021-08-20T20:49:54Z</time>
      </trkpt>
      <trkpt lat="42.9616" lon="-0.33262">
        <ele>1336</ele>
        <time>2021-08-20T20:49:56Z</time>
      </trkpt>
      <trkpt lat="42.96149" lon="-0.33269">
        <ele>1335</ele>
        <time>2021-08-20T20:49:58Z</time>
      </trkpt>
      <trkpt lat="42.96117" lon="-0.33306">
        <ele>1328</ele>
        <time>2021-08-20T20:50:05Z</time>
      </trkpt>
      <trkpt lat="42.96107" lon="-0.3331">
        <ele>1329</ele>
        <time>2021-08-20T20:50:07Z</time>
      </trkpt>
      <trkpt lat="42.96096" lon="-0.33306">
        <ele>1332</ele>
        <time>2021-08-20T20:50:09Z</time>
      </trkpt>
      <trkpt lat="42.96072" lon="-0.33282">
        <ele>1345</ele>
        <time>2021-08-20T20:50:15Z</time>
      </trkpt>
      <trkpt lat="42.96062" lon="-0.33278">
        <ele>1348</ele>
        <time>2021-08-20T20:50:16Z</time>
      </trkpt>
      <trkpt lat="42.96045" lon="-0.33278">
        <ele>1351</ele>
        <time>2021-08-20T20:50:19Z</time>
      </trkpt>
      <trkpt lat="42.96031" lon="-0.33284">
        <ele>1352</ele>
        <time>2021-08-20T20:50:22Z</time>
      </trkpt>
      <trkpt lat="42.96023" lon="-0.33292">
        <ele>1351</ele>
        <time>2021-08-20T20:50:24Z</time>
      </trkpt>
      <trkpt lat="42.96011" lon="-0.33299">
        <ele>1352</ele>
        <time>2021-08-20T20:50:26Z</time>
      </trkpt>
      <trkpt lat="42.95994" lon="-0.33305">
        <ele>1354</ele>
        <time>2021-08-20T20:50:29Z</time>
      </trkpt>
      <trkpt lat="42.95977" lon="-0.33306">
        <ele>1355</ele>
        <time>2021-08-20T20:50:32Z</time>
      </trkpt>
      <trkpt lat="42.95928" lon="-0.33296">
        <ele>1359</ele>
        <time>2021-08-20T20:50:41Z</time>
      </trkpt>
      <trkpt lat="42.95905" lon="-0.33295">
        <ele>1360</ele>
        <time>2021-08-20T20:50:45Z</time>
      </trkpt>
      <trkpt lat="42.95878" lon="-0.33301">
        <ele>1359</ele>
        <time>2021-08-20T20:50:50Z</time>
      </trkpt>
      <trkpt lat="42.95861" lon="-0.33301">
        <ele>1359</ele>
        <time>2021-08-20T20:50:53Z</time>
      </trkpt>
      <trkpt lat="42.95846" lon="-0.33299">
        <ele>1359</ele>
        <time>2021-08-20T20:50:56Z</time>
      </trkpt>
      <trkpt lat="42.95828" lon="-0.3329">
        <ele>1359</ele>
        <time>2021-08-20T20:50:59Z</time>
      </trkpt>
      <trkpt lat="42.95815" lon="-0.33275">
        <ele>1359</ele>
        <time>2021-08-20T20:51:02Z</time>
      </trkpt>
      <trkpt lat="42.95806" lon="-0.33261">
        <ele>1360</ele>
        <time>2021-08-20T20:51:05Z</time>
      </trkpt>
      <trkpt lat="42.95808" lon="-0.33246">
        <ele>1361</ele>
        <time>2021-08-20T20:51:07Z</time>
      </trkpt>
      <trkpt lat="42.95812" lon="-0.33239">
        <ele>1362</ele>
        <time>2021-08-20T20:51:08Z</time>
      </trkpt>
      <trkpt lat="42.95817" lon="-0.33236">
        <ele>1362</ele>
        <time>2021-08-20T20:51:09Z</time>
      </trkpt>
      <trkpt lat="42.95826" lon="-0.33234">
        <ele>1362</ele>
        <time>2021-08-20T20:51:10Z</time>
      </trkpt>
      <trkpt lat="42.9584" lon="-0.33237">
        <ele>1362</ele>
        <time>2021-08-20T20:51:13Z</time>
      </trkpt>
      <trkpt lat="42.95847" lon="-0.33243">
        <ele>1361</ele>
        <time>2021-08-20T20:51:14Z</time>
      </trkpt>
      <trkpt lat="42.95864" lon="-0.33265">
        <ele>1360</ele>
        <time>2021-08-20T20:51:19Z</time>
      </trkpt>
      <trkpt lat="42.9588" lon="-0.33271">
        <ele>1361</ele>
        <time>2021-08-20T20:51:21Z</time>
      </trkpt>
      <trkpt lat="42.9591" lon="-0.33261">
        <ele>1363</ele>
        <time>2021-08-20T20:51:27Z</time>
      </trkpt>
      <trkpt lat="42.95919" lon="-0.3326">
        <ele>1364</ele>
        <time>2021-08-20T20:51:29Z</time>
      </trkpt>
      <trkpt lat="42.95938" lon="-0.33264">
        <ele>1363</ele>
        <time>2021-08-20T20:51:32Z</time>
      </trkpt>
      <trkpt lat="42.95951" lon="-0.33262">
        <ele>1363</ele>
        <time>2021-08-20T20:51:34Z</time>
      </trkpt>
      <trkpt lat="42.95964" lon="-0.33257">
        <ele>1364</ele>
        <time>2021-08-20T20:51:37Z</time>
      </trkpt>
      <trkpt lat="42.95972" lon="-0.3325">
        <ele>1365</ele>
        <time>2021-08-20T20:51:38Z</time>
      </trkpt>
      <trkpt lat="42.9598" lon="-0.3324">
        <ele>1366</ele>
        <time>2021-08-20T20:51:40Z</time>
      </trkpt>
      <trkpt lat="42.9599" lon="-0.33195">
        <ele>1373</ele>
        <time>2021-08-20T20:51:46Z</time>
      </trkpt>
      <trkpt lat="42.95994" lon="-0.33186">
        <ele>1374</ele>
        <time>2021-08-20T20:51:48Z</time>
      </trkpt>
      <trkpt lat="42.96043" lon="-0.33128">
        <ele>1384</ele>
        <time>2021-08-20T20:51:59Z</time>
      </trkpt>
      <trkpt lat="42.96056" lon="-0.33123">
        <ele>1386</ele>
        <time>2021-08-20T20:52:02Z</time>
      </trkpt>
      <trkpt lat="42.96086" lon="-0.33117">
        <ele>1387</ele>
        <time>2021-08-20T20:52:07Z</time>
      </trkpt>
      <trkpt lat="42.96103" lon="-0.33107">
        <ele>1390</ele>
        <time>2021-08-20T20:52:10Z</time>
      </trkpt>
      <trkpt lat="42.96111" lon="-0.33106">
        <ele>1391</ele>
        <time>2021-08-20T20:52:12Z</time>
      </trkpt>
      <trkpt lat="42.96121" lon="-0.33109">
        <ele>1390</ele>
        <time>2021-08-20T20:52:14Z</time>
      </trkpt>
      <trkpt lat="42.96131" lon="-0.3311">
        <ele>1390</ele>
        <time>2021-08-20T20:52:15Z</time>
      </trkpt>
      <trkpt lat="42.96151" lon="-0.33104">
        <ele>1392</ele>
        <time>2021-08-20T20:52:19Z</time>
      </trkpt>
      <trkpt lat="42.96184" lon="-0.33088">
        <ele>1398</ele>
        <time>2021-08-20T20:52:25Z</time>
      </trkpt>
      <trkpt lat="42.9622" lon="-0.33064">
        <ele>1406</ele>
        <time>2021-08-20T20:52:32Z</time>
      </trkpt>
      <trkpt lat="42.9625" lon="-0.33047">
        <ele>1412</ele>
        <time>2021-08-20T20:52:38Z</time>
      </trkpt>
      <trkpt lat="42.96274" lon="-0.33038">
        <ele>1422</ele>
        <time>2021-08-20T20:52:43Z</time>
      </trkpt>
      <trkpt lat="42.96294" lon="-0.3304">
        <ele>1426</ele>
        <time>2021-08-20T20:52:46Z</time>
      </trkpt>
      <trkpt lat="42.9631" lon="-0.33048">
        <ele>1428</ele>
        <time>2021-08-20T20:52:49Z</time>
      </trkpt>
      <trkpt lat="42.96327" lon="-0.33063">
        <ele>1428</ele>
        <time>2021-08-20T20:52:53Z</time>
      </trkpt>
      <trkpt lat="42.96336" lon="-0.3309">
        <ele>1422</ele>
        <time>2021-08-20T20:52:57Z</time>
      </trkpt>
      <trkpt lat="42.96348" lon="-0.33116">
        <ele>1419</ele>
        <time>2021-08-20T20:53:01Z</time>
      </trkpt>
      <trkpt lat="42.96357" lon="-0.33124">
        <ele>1420</ele>
        <time>2021-08-20T20:53:03Z</time>
      </trkpt>
      <trkpt lat="42.96369" lon="-0.33124">
        <ele>1424</ele>
        <time>2021-08-20T20:53:05Z</time>
      </trkpt>
      <trkpt lat="42.96381" lon="-0.33128">
        <ele>1427</ele>
        <time>2021-08-20T20:53:07Z</time>
      </trkpt>
      <trkpt lat="42.96413" lon="-0.33146">
        <ele>1430</ele>
        <time>2021-08-20T20:53:13Z</time>
      </trkpt>
      <trkpt lat="42.96437" lon="-0.33155">
        <ele>1437</ele>
        <time>2021-08-20T20:53:18Z</time>
      </trkpt>
      <trkpt lat="42.96446" lon="-0.33166">
        <ele>1436</ele>
        <time>2021-08-20T20:53:20Z</time>
      </trkpt>
      <trkpt lat="42.9645" lon="-0.33177">
        <ele>1435</ele>
        <time>2021-08-20T20:53:21Z</time>
      </trkpt>
      <trkpt lat="42.96457" lon="-0.33185">
        <ele>1436</ele>
        <time>2021-08-20T20:53:23Z</time>
      </trkpt>
      <trkpt lat="42.96476" lon="-0.332">
        <ele>1440</ele>
        <time>2021-08-20T20:53:27Z</time>
      </trkpt>
      <trkpt lat="42.96484" lon="-0.33218">
        <ele>1438</ele>
        <time>2021-08-20T20:53:30Z</time>
      </trkpt>
      <trkpt lat="42.96493" lon="-0.33228">
        <ele>1440</ele>
        <time>2021-08-20T20:53:32Z</time>
      </trkpt>
      <trkpt lat="42.96497" lon="-0.33239">
        <ele>1438</ele>
        <time>2021-08-20T20:53:33Z</time>
      </trkpt>
      <trkpt lat="42.96497" lon="-0.33255">
        <ele>1434</ele>
        <time>2021-08-20T20:53:35Z</time>
      </trkpt>
      <trkpt lat="42.96499" lon="-0.33269">
        <ele>1434</ele>
        <time>2021-08-20T20:53:37Z</time>
      </trkpt>
      <trkpt lat="42.96506" lon="-0.33294">
        <ele>1436</ele>
        <time>2021-08-20T20:53:41Z</time>
      </trkpt>
      <trkpt lat="42.96507" lon="-0.33319">
        <ele>1434</ele>
        <time>2021-08-20T20:53:44Z</time>
      </trkpt>
      <trkpt lat="42.96509" lon="-0.33337">
        <ele>1434</ele>
        <time>2021-08-20T20:53:46Z</time>
      </trkpt>
      <trkpt lat="42.96526" lon="-0.33395">
        <ele>1436</ele>
        <time>2021-08-20T20:53:54Z</time>
      </trkpt>
      <trkpt lat="42.96529" lon="-0.33414">
        <ele>1435</ele>
        <time>2021-08-20T20:53:57Z</time>
      </trkpt>
      <trkpt lat="42.96537" lon="-0.33432">
        <ele>1434</ele>
        <time>2021-08-20T20:54:00Z</time>
      </trkpt>
      <trkpt lat="42.96557" lon="-0.33451">
        <ele>1438</ele>
        <time>2021-08-20T20:54:04Z</time>
      </trkpt>
      <trkpt lat="42.96562" lon="-0.33453">
        <ele>1441</ele>
        <time>2021-08-20T20:54:05Z</time>
      </trkpt>
      <trkpt lat="42.96595" lon="-0.33442">
        <ele>1461</ele>
        <time>2021-08-20T20:54:11Z</time>
      </trkpt>
      <trkpt lat="42.96616" lon="-0.3344">
        <ele>1472</ele>
        <time>2021-08-20T20:54:15Z</time>
      </trkpt>
      <trkpt lat="42.96626" lon="-0.33447">
        <ele>1474</ele>
        <time>2021-08-20T20:54:17Z</time>
      </trkpt>
      <trkpt lat="42.9663" lon="-0.33453">
        <ele>1473</ele>
        <time>2021-08-20T20:54:18Z</time>
      </trkpt>
      <trkpt lat="42.96638" lon="-0.33482">
        <ele>1466</ele>
        <time>2021-08-20T20:54:22Z</time>
      </trkpt>
      <trkpt lat="42.96639" lon="-0.33506">
        <ele>1459</ele>
        <time>2021-08-20T20:54:25Z</time>
      </trkpt>
      <trkpt lat="42.96645" lon="-0.33525">
        <ele>1458</ele>
        <time>2021-08-20T20:54:28Z</time>
      </trkpt>
      <trkpt lat="42.96653" lon="-0.33536">
        <ele>1459</ele>
        <time>2021-08-20T20:54:30Z</time>
      </trkpt>
      <trkpt lat="42.96672" lon="-0.33549">
        <ele>1465</ele>
        <time>2021-08-20T20:54:34Z</time>
      </trkpt>
      <trkpt lat="42.96692" lon="-0.33558">
        <ele>1469</ele>
        <time>2021-08-20T20:54:37Z</time>
      </trkpt>
      <trkpt lat="42.96714" lon="-0.33558">
        <ele>1476</ele>
        <time>2021-08-20T20:54:41Z</time>
      </trkpt>
      <trkpt lat="42.96734" lon="-0.33563">
        <ele>1481</ele>
        <time>2021-08-20T20:54:45Z</time>
      </trkpt>
      <trkpt lat="42.9676" lon="-0.33587">
        <ele>1479</ele>
        <time>2021-08-20T20:54:50Z</time>
      </trkpt>
      <trkpt lat="42.9677" lon="-0.33591">
        <ele>1480</ele>
        <time>2021-08-20T20:54:52Z</time>
      </trkpt>
      <trkpt lat="42.96784" lon="-0.33593">
        <ele>1483</ele>
        <time>2021-08-20T20:54:55Z</time>
      </trkpt>
      <trkpt lat="42.9679" lon="-0.33598">
        <ele>1483</ele>
        <time>2021-08-20T20:54:56Z</time>
      </trkpt>
      <trkpt lat="42.96794" lon="-0.33603">
        <ele>1482</ele>
        <time>2021-08-20T20:54:57Z</time>
      </trkpt>
      <trkpt lat="42.96804" lon="-0.33628">
        <ele>1477</ele>
        <time>2021-08-20T20:55:01Z</time>
      </trkpt>
      <trkpt lat="42.96829" lon="-0.33653">
        <ele>1475</ele>
        <time>2021-08-20T20:55:06Z</time>
      </trkpt>
      <trkpt lat="42.9684" lon="-0.33658">
        <ele>1477</ele>
        <time>2021-08-20T20:55:08Z</time>
      </trkpt>
      <trkpt lat="42.96857" lon="-0.33658">
        <ele>1486</ele>
        <time>2021-08-20T20:55:11Z</time>
      </trkpt>
      <trkpt lat="42.96879" lon="-0.33665">
        <ele>1495</ele>
        <time>2021-08-20T20:55:15Z</time>
      </trkpt>
      <trkpt lat="42.96885" lon="-0.33671">
        <ele>1497</ele>
        <time>2021-08-20T20:55:17Z</time>
      </trkpt>
      <trkpt lat="42.96888" lon="-0.33679">
        <ele>1498</ele>
        <time>2021-08-20T20:55:18Z</time>
      </trkpt>
      <trkpt lat="42.96889" lon="-0.33689">
        <ele>1498</ele>
        <time>2021-08-20T20:55:19Z</time>
      </trkpt>
      <trkpt lat="42.96881" lon="-0.33716">
        <ele>1491</ele>
        <time>2021-08-20T20:55:23Z</time>
      </trkpt>
      <trkpt lat="42.96881" lon="-0.33727">
        <ele>1490</ele>
        <time>2021-08-20T20:55:24Z</time>
      </trkpt>
      <trkpt lat="42.9689" lon="-0.33742">
        <ele>1494</ele>
        <time>2021-08-20T20:55:27Z</time>
      </trkpt>
      <trkpt lat="42.96891" lon="-0.33754">
        <ele>1495</ele>
        <time>2021-08-20T20:55:28Z</time>
      </trkpt>
      <trkpt lat="42.96884" lon="-0.33778">
        <ele>1492</ele>
        <time>2021-08-20T20:55:32Z</time>
      </trkpt>
      <trkpt lat="42.96882" lon="-0.33794">
        <ele>1492</ele>
        <time>2021-08-20T20:55:34Z</time>
      </trkpt>
      <trkpt lat="42.96882" lon="-0.33804">
        <ele>1493</ele>
        <time>2021-08-20T20:55:35Z</time>
      </trkpt>
      <trkpt lat="42.96886" lon="-0.33832">
        <ele>1498</ele>
        <time>2021-08-20T20:55:39Z</time>
      </trkpt>
      <trkpt lat="42.96897" lon="-0.33885">
        <ele>1502</ele>
        <time>2021-08-20T20:55:46Z</time>
      </trkpt>
      <trkpt lat="42.969" lon="-0.33929">
        <ele>1502</ele>
        <time>2021-08-20T20:55:52Z</time>
      </trkpt>
      <trkpt lat="42.96925" lon="-0.34025">
        <ele>1511</ele>
        <time>2021-08-20T20:56:05Z</time>
      </trkpt>
      <trkpt lat="42.96931" lon="-0.34042">
        <ele>1515</ele>
        <time>2021-08-20T20:56:08Z</time>
      </trkpt>
      <trkpt lat="42.9694" lon="-0.34055">
        <ele>1521</ele>
        <time>2021-08-20T20:56:10Z</time>
      </trkpt>
      <trkpt lat="42.96943" lon="-0.34069">
        <ele>1523</ele>
        <time>2021-08-20T20:56:12Z</time>
      </trkpt>
      <trkpt lat="42.96942" lon="-0.34082">
        <ele>1522</ele>
        <time>2021-08-20T20:56:13Z</time>
      </trkpt>
      <trkpt lat="42.96925" lon="-0.34122">
        <ele>1510</ele>
        <time>2021-08-20T20:56:19Z</time>
      </trkpt>
      <trkpt lat="42.96925" lon="-0.34135">
        <ele>1510</ele>
        <time>2021-08-20T20:56:21Z</time>
      </trkpt>
      <trkpt lat="42.9693" lon="-0.3415">
        <ele>1514</ele>
        <time>2021-08-20T20:56:23Z</time>
      </trkpt>
      <trkpt lat="42.96959" lon="-0.34209">
        <ele>1528</ele>
        <time>2021-08-20T20:56:33Z</time>
      </trkpt>
      <trkpt lat="42.96987" lon="-0.3428">
        <ele>1540</ele>
        <time>2021-08-20T20:56:43Z</time>
      </trkpt>
      <trkpt lat="42.96988" lon="-0.34292">
        <ele>1540</ele>
        <time>2021-08-20T20:56:45Z</time>
      </trkpt>
      <trkpt lat="42.96983" lon="-0.34331">
        <ele>1532</ele>
        <time>2021-08-20T20:56:50Z</time>
      </trkpt>
      <trkpt lat="42.96982" lon="-0.34359">
        <ele>1526</ele>
        <time>2021-08-20T20:56:53Z</time>
      </trkpt>
      <trkpt lat="42.96986" lon="-0.34374">
        <ele>1525</ele>
        <time>2021-08-20T20:56:56Z</time>
      </trkpt>
      <trkpt lat="42.96994" lon="-0.34382">
        <ele>1528</ele>
        <time>2021-08-20T20:56:57Z</time>
      </trkpt>
      <trkpt lat="42.97017" lon="-0.34401">
        <ele>1537</ele>
        <time>2021-08-20T20:57:02Z</time>
      </trkpt>
      <trkpt lat="42.97028" lon="-0.34415">
        <ele>1541</ele>
        <time>2021-08-20T20:57:05Z</time>
      </trkpt>
      <trkpt lat="42.97065" lon="-0.3449">
        <ele>1547</ele>
        <time>2021-08-20T20:57:17Z</time>
      </trkpt>
      <trkpt lat="42.97079" lon="-0.34526">
        <ele>1548</ele>
        <time>2021-08-20T20:57:22Z</time>
      </trkpt>
      <trkpt lat="42.97085" lon="-0.34535">
        <ele>1550</ele>
        <time>2021-08-20T20:57:23Z</time>
      </trkpt>
      <trkpt lat="42.97099" lon="-0.34547">
        <ele>1555</ele>
        <time>2021-08-20T20:57:26Z</time>
      </trkpt>
      <trkpt lat="42.97141" lon="-0.34576">
        <ele>1567</ele>
        <time>2021-08-20T20:57:35Z</time>
      </trkpt>
      <trkpt lat="42.97145" lon="-0.34583">
        <ele>1567</ele>
        <time>2021-08-20T20:57:36Z</time>
      </trkpt>
      <trkpt lat="42.97156" lon="-0.34626">
        <ele>1560</ele>
        <time>2021-08-20T20:57:42Z</time>
      </trkpt>
      <trkpt lat="42.97157" lon="-0.34649">
        <ele>1554</ele>
        <time>2021-08-20T20:57:45Z</time>
      </trkpt>
      <trkpt lat="42.97159" lon="-0.34665">
        <ele>1551</ele>
        <time>2021-08-20T20:57:47Z</time>
      </trkpt>
      <trkpt lat="42.97163" lon="-0.34675">
        <ele>1551</ele>
        <time>2021-08-20T20:57:48Z</time>
      </trkpt>
      <trkpt lat="42.97171" lon="-0.34678">
        <ele>1553</ele>
        <time>2021-08-20T20:57:50Z</time>
      </trkpt>
      <trkpt lat="42.97176" lon="-0.34677">
        <ele>1554</ele>
        <time>2021-08-20T20:57:51Z</time>
      </trkpt>
      <trkpt lat="42.97182" lon="-0.34669">
        <ele>1556</ele>
        <time>2021-08-20T20:57:52Z</time>
      </trkpt>
      <trkpt lat="42.97184" lon="-0.34639">
        <ele>1563</ele>
        <time>2021-08-20T20:57:56Z</time>
      </trkpt>
      <trkpt lat="42.97185" lon="-0.34601">
        <ele>1573</ele>
        <time>2021-08-20T20:58:01Z</time>
      </trkpt>
      <trkpt lat="42.97189" lon="-0.34589">
        <ele>1576</ele>
        <time>2021-08-20T20:58:03Z</time>
      </trkpt>
      <trkpt lat="42.97197" lon="-0.34579">
        <ele>1580</ele>
        <time>2021-08-20T20:58:05Z</time>
      </trkpt>
      <trkpt lat="42.97206" lon="-0.34577">
        <ele>1581</ele>
        <time>2021-08-20T20:58:06Z</time>
      </trkpt>
      <trkpt lat="42.97244" lon="-0.34578">
        <ele>1584</ele>
        <time>2021-08-20T20:58:13Z</time>
      </trkpt>
      <trkpt lat="42.9725" lon="-0.34581">
        <ele>1584</ele>
        <time>2021-08-20T20:58:14Z</time>
      </trkpt>
      <trkpt lat="42.97257" lon="-0.3459">
        <ele>1583</ele>
        <time>2021-08-20T20:58:16Z</time>
      </trkpt>
      <trkpt lat="42.97261" lon="-0.34603">
        <ele>1581</ele>
        <time>2021-08-20T20:58:18Z</time>
      </trkpt>
      <trkpt lat="42.97264" lon="-0.3462">
        <ele>1578</ele>
        <time>2021-08-20T20:58:20Z</time>
      </trkpt>
      <trkpt lat="42.9727" lon="-0.34635">
        <ele>1576</ele>
        <time>2021-08-20T20:58:22Z</time>
      </trkpt>
      <trkpt lat="42.97278" lon="-0.34641">
        <ele>1576</ele>
        <time>2021-08-20T20:58:24Z</time>
      </trkpt>
      <trkpt lat="42.97295" lon="-0.34647">
        <ele>1579</ele>
        <time>2021-08-20T20:58:27Z</time>
      </trkpt>
      <trkpt lat="42.97332" lon="-0.34652">
        <ele>1587</ele>
        <time>2021-08-20T20:58:34Z</time>
      </trkpt>
      <trkpt lat="42.97345" lon="-0.34651">
        <ele>1587</ele>
        <time>2021-08-20T20:58:36Z</time>
      </trkpt>
      <trkpt lat="42.97352" lon="-0.34648">
        <ele>1588</ele>
        <time>2021-08-20T20:58:37Z</time>
      </trkpt>
      <trkpt lat="42.97362" lon="-0.34638">
        <ele>1589</ele>
        <time>2021-08-20T20:58:40Z</time>
      </trkpt>
      <trkpt lat="42.97367" lon="-0.34626">
        <ele>1592</ele>
        <time>2021-08-20T20:58:41Z</time>
      </trkpt>
      <trkpt lat="42.97367" lon="-0.34611">
        <ele>1595</ele>
        <time>2021-08-20T20:58:43Z</time>
      </trkpt>
      <trkpt lat="42.97362" lon="-0.34565">
        <ele>1603</ele>
        <time>2021-08-20T20:58:49Z</time>
      </trkpt>
      <trkpt lat="42.97366" lon="-0.34549">
        <ele>1605</ele>
        <time>2021-08-20T20:58:52Z</time>
      </trkpt>
      <trkpt lat="42.97373" lon="-0.34538">
        <ele>1606</ele>
        <time>2021-08-20T20:58:53Z</time>
      </trkpt>
      <trkpt lat="42.97396" lon="-0.34528">
        <ele>1607</ele>
        <time>2021-08-20T20:58:58Z</time>
      </trkpt>
      <trkpt lat="42.97409" lon="-0.34518">
        <ele>1608</ele>
        <time>2021-08-20T20:59:00Z</time>
      </trkpt>
      <trkpt lat="42.97416" lon="-0.34503">
        <ele>1610</ele>
        <time>2021-08-20T20:59:03Z</time>
      </trkpt>
      <trkpt lat="42.97424" lon="-0.34472">
        <ele>1614</ele>
        <time>2021-08-20T20:59:07Z</time>
      </trkpt>
      <trkpt lat="42.97436" lon="-0.34451">
        <ele>1617</ele>
        <time>2021-08-20T20:59:10Z</time>
      </trkpt>
      <trkpt lat="42.97447" lon="-0.34445">
        <ele>1619</ele>
        <time>2021-08-20T20:59:13Z</time>
      </trkpt>
      <trkpt lat="42.97464" lon="-0.34444">
        <ele>1620</ele>
        <time>2021-08-20T20:59:16Z</time>
      </trkpt>
      <trkpt lat="42.97477" lon="-0.34449">
        <ele>1620</ele>
        <time>2021-08-20T20:59:18Z</time>
      </trkpt>
      <trkpt lat="42.97512" lon="-0.34478">
        <ele>1622</ele>
        <time>2021-08-20T20:59:25Z</time>
      </trkpt>
      <trkpt lat="42.97538" lon="-0.34521">
        <ele>1622</ele>
        <time>2021-08-20T20:59:33Z</time>
      </trkpt>
      <trkpt lat="42.97549" lon="-0.34531">
        <ele>1623</ele>
        <time>2021-08-20T20:59:35Z</time>
      </trkpt>
      <trkpt lat="42.9756" lon="-0.34533">
        <ele>1624</ele>
        <time>2021-08-20T20:59:37Z</time>
      </trkpt>
      <trkpt lat="42.97574" lon="-0.34529">
        <ele>1626</ele>
        <time>2021-08-20T20:59:39Z</time>
      </trkpt>
      <trkpt lat="42.97587" lon="-0.34519">
        <ele>1629</ele>
        <time>2021-08-20T20:59:42Z</time>
      </trkpt>
      <trkpt lat="42.97598" lon="-0.34499">
        <ele>1634</ele>
        <time>2021-08-20T20:59:45Z</time>
      </trkpt>
      <trkpt lat="42.97608" lon="-0.34486">
        <ele>1637</ele>
        <time>2021-08-20T20:59:48Z</time>
      </trkpt>
      <trkpt lat="42.97616" lon="-0.34484">
        <ele>1639</ele>
        <time>2021-08-20T20:59:49Z</time>
      </trkpt>
      <trkpt lat="42.97626" lon="-0.34488">
        <ele>1640</ele>
        <time>2021-08-20T20:59:51Z</time>
      </trkpt>
      <trkpt lat="42.97645" lon="-0.34513">
        <ele>1637</ele>
        <time>2021-08-20T20:59:56Z</time>
      </trkpt>
      <trkpt lat="42.9766" lon="-0.34525">
        <ele>1636</ele>
        <time>2021-08-20T20:59:59Z</time>
      </trkpt>
      <trkpt lat="42.97681" lon="-0.34534">
        <ele>1635</ele>
        <time>2021-08-20T21:00:03Z</time>
      </trkpt>
      <trkpt lat="42.97694" lon="-0.34534">
        <ele>1634</ele>
        <time>2021-08-20T21:00:05Z</time>
      </trkpt>
      <trkpt lat="42.97708" lon="-0.34528">
        <ele>1636</ele>
        <time>2021-08-20T21:00:08Z</time>
      </trkpt>
      <trkpt lat="42.97715" lon="-0.34524">
        <ele>1637</ele>
        <time>2021-08-20T21:00:09Z</time>
      </trkpt>
      <trkpt lat="42.97726" lon="-0.3451">
        <ele>1640</ele>
        <time>2021-08-20T21:00:12Z</time>
      </trkpt>
      <trkpt lat="42.97748" lon="-0.34464">
        <ele>1651</ele>
        <time>2021-08-20T21:00:19Z</time>
      </trkpt>
      <trkpt lat="42.97777" lon="-0.34421">
        <ele>1654</ele>
        <time>2021-08-20T21:00:27Z</time>
      </trkpt>
      <trkpt lat="42.97807" lon="-0.34355">
        <ele>1661</ele>
        <time>2021-08-20T21:00:37Z</time>
      </trkpt>
      <trkpt lat="42.97816" lon="-0.34317">
        <ele>1669</ele>
        <time>2021-08-20T21:00:42Z</time>
      </trkpt>
      <trkpt lat="42.97823" lon="-0.34307">
        <ele>1671</ele>
        <time>2021-08-20T21:00:44Z</time>
      </trkpt>
      <trkpt lat="42.97837" lon="-0.34301">
        <ele>1671</ele>
        <time>2021-08-20T21:00:46Z</time>
      </trkpt>
      <trkpt lat="42.97852" lon="-0.343">
        <ele>1671</ele>
        <time>2021-08-20T21:00:49Z</time>
      </trkpt>
      <trkpt lat="42.97873" lon="-0.3431">
        <ele>1667</ele>
        <time>2021-08-20T21:00:53Z</time>
      </trkpt>
      <trkpt lat="42.97888" lon="-0.3431">
        <ele>1667</ele>
        <time>2021-08-20T21:00:56Z</time>
      </trkpt>
      <trkpt lat="42.97897" lon="-0.34301">
        <ele>1669</ele>
        <time>2021-08-20T21:00:58Z</time>
      </trkpt>
      <trkpt lat="42.97897" lon="-0.34289">
        <ele>1673</ele>
        <time>2021-08-20T21:00:59Z</time>
      </trkpt>
      <trkpt lat="42.97894" lon="-0.3428">
        <ele>1676</ele>
        <time>2021-08-20T21:01:00Z</time>
      </trkpt>
      <trkpt lat="42.97886" lon="-0.34273">
        <ele>1679</ele>
        <time>2021-08-20T21:01:02Z</time>
      </trkpt>
      <trkpt lat="42.97849" lon="-0.34279">
        <ele>1678</ele>
        <time>2021-08-20T21:01:09Z</time>
      </trkpt>
      <trkpt lat="42.97818" lon="-0.34275">
        <ele>1682</ele>
        <time>2021-08-20T21:01:14Z</time>
      </trkpt>
      <trkpt lat="42.97806" lon="-0.34279">
        <ele>1683</ele>
        <time>2021-08-20T21:01:16Z</time>
      </trkpt>
      <trkpt lat="42.97787" lon="-0.34302">
        <ele>1679</ele>
        <time>2021-08-20T21:01:21Z</time>
      </trkpt>
      <trkpt lat="42.97774" lon="-0.34314">
        <ele>1678</ele>
        <time>2021-08-20T21:01:24Z</time>
      </trkpt>
      <trkpt lat="42.97747" lon="-0.34324">
        <ele>1679</ele>
        <time>2021-08-20T21:01:29Z</time>
      </trkpt>
      <trkpt lat="42.97734" lon="-0.34322">
        <ele>1679</ele>
        <time>2021-08-20T21:01:31Z</time>
      </trkpt>
      <trkpt lat="42.97724" lon="-0.34318">
        <ele>1679</ele>
        <time>2021-08-20T21:01:33Z</time>
      </trkpt>
      <trkpt lat="42.97714" lon="-0.34308">
        <ele>1680</ele>
        <time>2021-08-20T21:01:35Z</time>
      </trkpt>
      <trkpt lat="42.97709" lon="-0.34292">
        <ele>1683</ele>
        <time>2021-08-20T21:01:37Z</time>
      </trkpt>
      <trkpt lat="42.97698" lon="-0.34232">
        <ele>1693</ele>
        <time>2021-08-20T21:01:45Z</time>
      </trkpt>
      <trkpt lat="42.9769" lon="-0.34208">
        <ele>1695</ele>
        <time>2021-08-20T21:01:49Z</time>
      </trkpt>
      <trkpt lat="42.97651" lon="-0.34155">
        <ele>1695</ele>
        <time>2021-08-20T21:01:59Z</time>
      </trkpt>
      <trkpt lat="42.97638" lon="-0.34129">
        <ele>1696</ele>
        <time>2021-08-20T21:02:03Z</time>
      </trkpt>
      <trkpt lat="42.9763" lon="-0.34102">
        <ele>1698</ele>
        <time>2021-08-20T21:02:07Z</time>
      </trkpt>
      <trkpt lat="42.97627" lon="-0.34074">
        <ele>1701</ele>
        <time>2021-08-20T21:02:10Z</time>
      </trkpt>
      <trkpt lat="42.97628" lon="-0.34044">
        <ele>1704</ele>
        <time>2021-08-20T21:02:14Z</time>
      </trkpt>
      <trkpt lat="42.97634" lon="-0.34019">
        <ele>1707</ele>
        <time>2021-08-20T21:02:18Z</time>
      </trkpt>
      <trkpt lat="42.97657" lon="-0.3398">
        <ele>1709</ele>
        <time>2021-08-20T21:02:24Z</time>
      </trkpt>
      <trkpt lat="42.97662" lon="-0.33965">
        <ele>1708</ele>
        <time>2021-08-20T21:02:26Z</time>
      </trkpt>
      <trkpt lat="42.97662" lon="-0.3395">
        <ele>1707</ele>
        <time>2021-08-20T21:02:28Z</time>
      </trkpt>
      <trkpt lat="42.97641" lon="-0.33903">
        <ele>1705</ele>
        <time>2021-08-20T21:02:35Z</time>
      </trkpt>
      <trkpt lat="42.97637" lon="-0.33891">
        <ele>1704</ele>
        <time>2021-08-20T21:02:37Z</time>
      </trkpt>
    </trkseg>
  </trk>
</gpx>